createdAt,value
2022-08-26T00:01:01.243Z,23.63
2022-08-26T00:04:03.666Z,23.83
2022-08-26T00:07:06.259Z,23.77
2022-08-26T00:10:08.358Z,23.62
2022-08-26T00:13:11.621Z,23.07
2022-08-26T00:16:13.244Z,22.91
2022-08-26T00:19:19.626Z,23.41
2022-08-26T00:22:22.166Z,23.54
2022-08-26T00:25:24.315Z,23.57
2022-08-26T00:28:26.724Z,23.17
2022-08-26T00:31:28.805Z,22.73
2022-08-26T00:34:33.054Z,22.77
2022-08-26T00:37:34.899Z,22.41
2022-08-26T00:40:40.910Z,22.43
2022-08-26T00:43:46.307Z,22.39
2022-08-26T00:46:52.843Z,22.68
2022-08-26T00:49:56.676Z,22.63
2022-08-26T00:53:01.859Z,22.22
2022-08-26T00:56:17.592Z,22.35
2022-08-26T00:59:20.411Z,22.81
2022-08-26T01:02:22.931Z,22.98
2022-08-26T01:05:25.363Z,23.14
2022-08-26T01:08:27.445Z,23.10
2022-08-26T01:11:29.407Z,22.97
2022-08-26T01:14:33.954Z,22.60
2022-08-26T01:17:37.565Z,22.27
2022-08-26T01:20:48.223Z,22.19
2022-08-26T01:23:51.738Z,22.21
2022-08-26T01:27:05.219Z,22.54
2022-08-26T01:30:07.554Z,22.34
2022-08-26T01:33:13.000Z,21.98
2022-08-26T01:36:15.282Z,22.04
2022-08-26T01:39:18.156Z,21.95
2022-08-26T01:42:22.300Z,21.96
2022-08-26T01:45:29.666Z,21.89
2022-08-26T01:48:34.297Z,21.79
2022-08-26T01:51:39.254Z,21.80
2022-08-26T01:54:41.344Z,22.39
2022-08-26T01:57:52.117Z,22.44
2022-08-26T02:00:58.699Z,21.82
2022-08-26T02:04:09.918Z,21.62
2022-08-26T02:07:12.345Z,21.65
2022-08-26T02:10:15.082Z,21.82
2022-08-26T02:13:16.949Z,21.85
2022-08-26T02:16:24.451Z,22.03
2022-08-26T02:19:30.185Z,21.82
2022-08-26T02:22:32.418Z,21.87
2022-08-26T02:25:39.887Z,21.86
2022-08-26T02:28:52.816Z,22.05
2022-08-26T02:31:55.764Z,22.16
2022-08-26T02:34:57.402Z,22.36
2022-08-26T02:38:00.613Z,22.41
2022-08-26T02:41:02.345Z,22.48
2022-08-26T02:44:04.461Z,22.62
2022-08-26T02:47:08.077Z,22.57
2022-08-26T02:50:09.766Z,22.55
2022-08-26T02:53:12.195Z,22.40
2022-08-26T02:56:14.677Z,22.52
2022-08-26T02:59:16.240Z,22.71
2022-08-26T03:02:18.372Z,22.60
2022-08-26T03:05:22.032Z,22.58
2022-08-26T03:08:25.680Z,22.34
2022-08-26T03:11:32.267Z,22.45
2022-08-26T03:14:34.273Z,22.31
2022-08-26T03:17:35.719Z,22.42
2022-08-26T03:20:37.373Z,22.47
2022-08-26T03:23:40.143Z,22.34
2022-08-26T03:26:52.076Z,22.41
2022-08-26T03:30:12.877Z,22.46
2022-08-26T03:33:16.355Z,22.44
2022-08-26T03:36:19.103Z,22.45
2022-08-26T03:39:20.716Z,22.49
2022-08-26T03:42:23.561Z,22.64
2022-08-26T03:45:25.525Z,22.59
2022-08-26T03:48:26.961Z,22.31
2022-08-26T03:51:29.185Z,22.18
2022-08-26T03:54:30.688Z,22.05
2022-08-26T03:57:32.406Z,22.09
2022-08-26T04:00:34.402Z,22.34
2022-08-26T04:03:54.282Z,22.47
2022-08-26T04:06:58.420Z,22.65
2022-08-26T04:10:00.072Z,22.55
2022-08-26T04:13:02.385Z,22.40
2022-08-26T04:16:03.937Z,22.32
2022-08-26T04:19:06.520Z,22.35
2022-08-26T04:22:08.722Z,22.25
2022-08-26T04:25:12.455Z,21.94
2022-08-26T04:28:14.751Z,21.67
2022-08-26T04:31:17.597Z,21.58
2022-08-26T04:34:21.144Z,21.50
2022-08-26T04:37:23.207Z,21.61
2022-08-26T04:40:27.586Z,21.51
2022-08-26T04:43:31.217Z,21.74
2022-08-26T04:46:33.127Z,21.80
2022-08-26T04:49:35.391Z,21.83
2022-08-26T04:52:37.326Z,22.03
2022-08-26T04:55:39.939Z,21.93
2022-08-26T04:58:45.648Z,21.91
2022-08-26T05:01:50.198Z,22.00
2022-08-26T05:04:52.360Z,22.16
2022-08-26T05:07:53.928Z,22.01
2022-08-26T05:10:56.270Z,21.95
2022-08-26T05:14:01.605Z,21.85
2022-08-26T05:17:04.150Z,21.93
2022-08-26T05:20:06.759Z,21.78
2022-08-26T05:23:08.529Z,21.67
2022-08-26T05:26:10.501Z,21.63
2022-08-26T05:29:12.510Z,21.58
2022-08-26T05:32:14.855Z,21.53
2022-08-26T05:35:17.655Z,21.53
2022-08-26T05:38:21.825Z,21.67
2022-08-26T05:41:34.339Z,21.80
2022-08-26T05:44:55.520Z,21.90
2022-08-26T05:47:57.857Z,21.90
2022-08-26T05:51:03.832Z,21.90
2022-08-26T05:54:06.894Z,22.03
2022-08-26T05:57:08.352Z,22.09
2022-08-26T06:00:11.496Z,22.08
2022-08-26T06:03:13.775Z,22.04
2022-08-26T06:06:27.460Z,22.20
2022-08-26T06:09:29.564Z,22.37
2022-08-26T06:12:32.531Z,22.20
2022-08-26T06:15:35.513Z,22.17
2022-08-26T06:18:40.049Z,22.24
2022-08-26T06:21:45.016Z,22.35
2022-08-26T06:25:05.284Z,22.53
2022-08-26T06:28:07.913Z,22.73
2022-08-26T06:31:10.127Z,22.95
2022-08-26T06:34:12.770Z,23.17
2022-08-26T06:37:14.219Z,23.31
2022-08-26T06:40:15.688Z,23.31
2022-08-26T06:43:19.787Z,23.19
2022-08-26T06:46:22.012Z,23.22
2022-08-26T06:49:26.735Z,23.35
2022-08-26T06:52:29.329Z,23.45
2022-08-26T06:55:30.880Z,23.42
2022-08-26T06:58:34.219Z,23.41
2022-08-26T07:01:39.257Z,23.53
2022-08-26T07:04:44.574Z,23.83
2022-08-26T07:07:49.449Z,24.04
2022-08-26T07:10:51.109Z,24.21
2022-08-26T07:13:58.879Z,24.29
2022-08-26T07:17:02.782Z,24.03
2022-08-26T07:20:07.568Z,23.84
2022-08-26T07:23:11.844Z,23.82
2022-08-26T07:26:16.714Z,23.90
2022-08-26T07:29:18.537Z,23.96
2022-08-26T07:32:20.998Z,24.08
2022-08-26T07:35:25.918Z,24.14
2022-08-26T07:38:27.973Z,23.93
2022-08-26T07:41:31.157Z,24.16
2022-08-26T07:44:33.459Z,24.40
2022-08-26T07:47:35.031Z,24.46
2022-08-26T07:50:49.126Z,24.74
2022-08-26T07:53:52.531Z,24.92
2022-08-26T07:56:55.903Z,25.17
2022-08-26T07:59:57.641Z,25.39
2022-08-26T08:03:00.617Z,25.45
2022-08-26T08:06:02.050Z,25.68
2022-08-26T08:09:05.415Z,25.88
2022-08-26T08:12:09.407Z,25.97
2022-08-26T08:15:16.683Z,25.98
2022-08-26T08:18:20.511Z,26.32
2022-08-26T08:21:26.215Z,26.42
2022-08-26T08:24:27.760Z,26.43
2022-08-26T08:27:29.306Z,26.77
2022-08-26T08:30:31.734Z,27.01
2022-08-26T08:33:36.667Z,27.48
2022-08-26T08:36:40.092Z,27.63
2022-08-26T08:39:43.083Z,27.79
2022-08-26T08:42:47.070Z,27.22
2022-08-26T08:45:57.682Z,27.11
2022-08-26T08:49:00.028Z,26.77
2022-08-26T08:52:07.492Z,27.06
2022-08-26T08:55:11.072Z,27.42
2022-08-26T08:58:19.717Z,27.51
2022-08-26T09:01:30.338Z,28.02
2022-08-26T09:05:03.042Z,28.30
2022-08-26T09:08:12.145Z,28.61
2022-08-26T09:11:15.966Z,28.53
2022-08-26T09:14:19.097Z,28.61
2022-08-26T09:17:43.775Z,28.91
2022-08-26T09:20:56.761Z,28.85
2022-08-26T09:23:59.107Z,29.01
2022-08-26T09:27:00.593Z,29.03
2022-08-26T09:30:02.013Z,29.35
2022-08-26T09:33:10.103Z,29.65
2022-08-26T09:36:18.731Z,29.98
2022-08-26T09:39:33.109Z,29.67
2022-08-26T09:42:34.765Z,29.88
2022-08-26T09:45:36.561Z,29.69
2022-08-26T09:48:41.072Z,29.77
2022-08-26T09:51:42.732Z,29.22
2022-08-26T09:54:45.426Z,29.76
2022-08-26T09:57:54.172Z,29.72
2022-08-26T10:00:58.816Z,29.69
2022-08-26T10:04:08.832Z,29.99
2022-08-26T10:07:10.617Z,30.41
2022-08-26T10:10:22.143Z,30.57
2022-08-26T10:13:32.136Z,30.53
2022-08-26T10:16:56.321Z,30.68
2022-08-26T10:20:05.795Z,30.69
2022-08-26T10:23:27.297Z,30.63
2022-08-26T10:26:44.495Z,30.77
2022-08-26T10:29:50.614Z,30.41
2022-08-26T10:33:01.061Z,30.59
2022-08-26T10:36:30.090Z,30.91
2022-08-26T10:39:57.338Z,31.14
2022-08-26T10:43:13.986Z,31.10
2022-08-26T10:46:20.556Z,31.47
2022-08-26T10:49:22.259Z,31.83
2022-08-26T10:52:39.278Z,32.06
2022-08-26T10:56:02.768Z,32.12
2022-08-26T10:59:12.440Z,31.20
2022-08-26T11:02:41.458Z,31.30
2022-08-26T11:06:20.408Z,31.29
2022-08-26T11:09:47.540Z,30.68
2022-08-26T11:12:54.103Z,30.98
2022-08-26T11:15:55.668Z,30.58
2022-08-26T11:18:57.145Z,30.70
2022-08-26T11:22:09.993Z,31.59
2022-08-26T11:25:29.697Z,31.76
2022-08-26T11:28:37.212Z,32.59
2022-08-26T11:31:39.038Z,32.96
2022-08-26T11:35:00.444Z,32.32
2022-08-26T11:38:26.993Z,32.38
2022-08-26T11:41:30.730Z,33.72
2022-08-26T11:44:39.669Z,33.81
2022-08-26T11:47:42.127Z,34.03
2022-08-26T11:50:59.272Z,34.40
2022-08-26T11:54:16.414Z,34.17
2022-08-26T11:57:17.957Z,34.24
2022-08-26T12:00:54.361Z,34.03
2022-08-26T12:03:58.492Z,32.41
2022-08-26T12:07:02.277Z,32.01
2022-08-26T12:10:06.856Z,32.73
2022-08-26T12:13:17.693Z,33.34
2022-08-26T12:16:27.174Z,33.74
2022-08-26T12:19:33.258Z,33.47
2022-08-26T12:22:36.090Z,33.31
2022-08-26T12:25:39.314Z,33.17
2022-08-26T12:28:46.993Z,33.55
2022-08-26T12:31:48.750Z,33.45
2022-08-26T12:34:51.059Z,32.43
2022-08-26T12:37:54.503Z,32.37
2022-08-26T12:40:57.006Z,31.78
2022-08-26T12:43:58.450Z,31.99
2022-08-26T12:47:09.963Z,32.03
2022-08-26T12:50:25.249Z,32.13
2022-08-26T12:53:33.234Z,31.74
2022-08-26T12:56:40.588Z,31.54
2022-08-26T12:59:42.019Z,31.28
2022-08-26T13:02:43.530Z,30.95
2022-08-26T13:05:45.218Z,30.78
2022-08-26T13:09:10.599Z,30.77
2022-08-26T13:12:12.675Z,30.74
2022-08-26T13:15:14.173Z,30.16
2022-08-26T13:18:15.637Z,30.19
2022-08-26T13:21:20.606Z,30.09
2022-08-26T13:24:35.141Z,29.92
2022-08-26T13:27:36.751Z,29.87
2022-08-26T13:30:40.405Z,29.95
2022-08-26T13:33:44.501Z,29.60
2022-08-26T13:36:50.789Z,29.37
2022-08-26T13:39:53.570Z,29.29
2022-08-26T13:42:55.401Z,28.90
2022-08-26T13:45:57.159Z,28.66
2022-08-26T13:48:58.796Z,28.54
2022-08-26T13:52:00.293Z,28.37
2022-08-26T13:55:02.199Z,28.33
2022-08-26T13:58:03.724Z,28.27
2022-08-26T14:01:05.344Z,28.03
2022-08-26T14:04:07.411Z,27.90
2022-08-26T14:07:08.966Z,28.20
2022-08-26T14:10:11.900Z,28.26
2022-08-26T14:13:15.328Z,27.94
2022-08-26T14:16:27.170Z,28.13
2022-08-26T14:19:30.021Z,28.24
2022-08-26T14:22:32.953Z,27.93
2022-08-26T14:25:34.492Z,27.87
2022-08-26T14:28:36.175Z,28.10
2022-08-26T14:31:37.956Z,28.18
2022-08-26T14:34:41.449Z,28.22
2022-08-26T14:37:43.183Z,28.17
2022-08-26T14:40:45.077Z,28.28
2022-08-26T14:43:59.897Z,27.59
2022-08-26T14:47:04.206Z,26.96
2022-08-26T14:50:06.133Z,25.78
2022-08-26T14:53:26.429Z,25.87
2022-08-26T14:56:30.956Z,25.57
2022-08-26T14:59:49.745Z,23.66
2022-08-26T15:02:51.896Z,23.99
2022-08-26T15:05:54.565Z,23.92
2022-08-26T15:08:56.256Z,24.42
2022-08-26T15:11:58.047Z,25.29
2022-08-26T15:14:59.713Z,25.41
2022-08-26T15:18:01.345Z,24.88
2022-08-26T15:21:04.419Z,25.50
2022-08-26T15:24:06.213Z,25.47
2022-08-26T15:27:08.999Z,25.41
2022-08-26T15:30:12.284Z,25.25
2022-08-26T15:33:15.384Z,24.87
2022-08-26T15:36:17.100Z,25.06
2022-08-26T15:39:18.602Z,24.84
2022-08-26T15:42:20.946Z,24.83
2022-08-26T15:45:25.842Z,25.02
2022-08-26T15:48:28.046Z,24.98
2022-08-26T15:51:30.834Z,25.10
2022-08-26T15:54:32.652Z,25.07
2022-08-26T15:57:34.296Z,25.15
2022-08-26T16:00:36.540Z,25.11
2022-08-26T16:03:38.133Z,25.25
2022-08-26T16:06:40.992Z,25.29
2022-08-26T16:09:42.584Z,25.04
2022-08-26T16:12:44.053Z,25.01
2022-08-26T16:15:46.054Z,24.74
2022-08-26T16:18:48.392Z,25.14
2022-08-26T16:21:51.372Z,25.37
2022-08-26T16:24:57.143Z,25.45
2022-08-26T16:27:59.154Z,25.58
2022-08-26T16:31:00.694Z,25.54
2022-08-26T16:34:02.101Z,25.35
2022-08-26T16:37:03.965Z,25.50
2022-08-26T16:40:07.415Z,25.49
2022-08-26T16:43:09.057Z,25.47
2022-08-26T16:46:17.160Z,25.46
2022-08-26T16:49:18.908Z,25.39
2022-08-26T16:52:20.482Z,25.37
2022-08-26T16:55:22.907Z,25.18
2022-08-26T16:58:24.360Z,25.03
2022-08-26T17:01:25.997Z,24.87
2022-08-26T17:04:27.920Z,25.12
2022-08-26T17:07:29.362Z,24.92
2022-08-26T17:10:31.836Z,24.73
2022-08-26T17:13:35.084Z,24.78
2022-08-26T17:16:37.831Z,24.80
2022-08-26T17:19:42.913Z,24.26
2022-08-26T17:22:50.828Z,21.79
2022-08-26T17:25:52.320Z,22.65
2022-08-26T17:28:54.820Z,22.10
2022-08-26T17:31:56.376Z,21.83
2022-08-26T17:34:57.894Z,20.73
2022-08-26T17:37:59.879Z,21.04
2022-08-26T17:41:01.357Z,21.45
2022-08-26T17:44:03.103Z,21.67
2022-08-26T17:47:05.332Z,21.73
2022-08-26T17:50:09.863Z,21.83
2022-08-26T17:53:12.581Z,21.98
2022-08-26T17:56:25.375Z,22.38
2022-08-26T17:59:30.471Z,22.37
2022-08-26T18:02:32.274Z,22.23
2022-08-26T18:05:33.731Z,22.15
2022-08-26T18:08:35.273Z,22.11
2022-08-26T18:11:37.018Z,22.07
2022-08-26T18:14:38.415Z,22.44
2022-08-26T18:17:40.292Z,22.20
2022-08-26T18:20:43.862Z,22.25
2022-08-26T18:23:46.920Z,22.48
2022-08-26T18:26:49.550Z,22.15
2022-08-26T18:29:51.155Z,21.75
2022-08-26T18:32:52.850Z,21.56
2022-08-26T18:35:54.229Z,21.91
2022-08-26T18:38:57.034Z,22.20
2022-08-26T18:41:58.790Z,22.18
2022-08-26T18:45:00.154Z,22.03
2022-08-26T18:48:03.419Z,22.00
2022-08-26T18:51:06.697Z,22.02
2022-08-26T18:54:08.303Z,21.91
2022-08-26T18:57:09.839Z,21.73
2022-08-26T19:00:12.143Z,21.83
2022-08-26T19:03:18.414Z,21.69
2022-08-26T19:06:23.210Z,21.61
2022-08-26T19:09:26.383Z,21.66
2022-08-26T19:12:29.544Z,22.05
2022-08-26T19:15:41.089Z,21.60
2022-08-26T19:18:42.685Z,21.60
2022-08-26T19:21:44.474Z,21.82
2022-08-26T19:24:45.943Z,22.00
2022-08-26T19:27:47.411Z,21.94
2022-08-26T19:30:52.985Z,22.06
2022-08-26T19:33:56.639Z,21.73
2022-08-26T19:36:58.577Z,21.61
2022-08-26T19:40:00.182Z,21.69
2022-08-26T19:43:01.785Z,21.74
2022-08-26T19:46:10.671Z,21.42
2022-08-26T19:49:12.180Z,21.71
2022-08-26T19:52:13.877Z,21.78
2022-08-26T19:55:18.036Z,21.95
2022-08-26T19:58:19.583Z,21.65
2022-08-26T20:01:21.236Z,21.76
2022-08-26T20:04:23.001Z,21.70
2022-08-26T20:07:24.443Z,21.66
2022-08-26T20:10:26.086Z,21.19
2022-08-26T20:13:28.233Z,21.60
2022-08-26T20:16:30.011Z,21.82
2022-08-26T20:19:50.101Z,22.18
2022-08-26T20:22:51.576Z,22.07
2022-08-26T20:25:53.014Z,21.37
2022-08-26T20:28:55.143Z,21.44
2022-08-26T20:31:56.639Z,21.43
2022-08-26T20:34:58.151Z,21.77
2022-08-26T20:37:59.921Z,21.35
2022-08-26T20:41:01.656Z,21.08
2022-08-26T20:44:04.129Z,21.34
2022-08-26T20:47:06.145Z,21.02
2022-08-26T20:50:08.519Z,21.35
2022-08-26T20:53:10.064Z,20.94
2022-08-26T20:56:13.856Z,20.90
2022-08-26T20:59:16.316Z,21.47
2022-08-26T21:02:18.123Z,21.55
2022-08-26T21:05:19.564Z,21.17
2022-08-26T21:08:21.201Z,21.52
2022-08-26T21:11:23.328Z,21.52
2022-08-26T21:14:25.969Z,21.27
2022-08-26T21:17:29.318Z,21.27
2022-08-26T21:20:32.478Z,21.57
2022-08-26T21:23:34.822Z,21.75
2022-08-26T21:26:36.638Z,21.71
2022-08-26T21:29:38.003Z,21.43
2022-08-26T21:32:39.620Z,21.59
2022-08-26T21:35:41.075Z,21.29
2022-08-26T21:38:42.604Z,21.22
2022-08-26T21:41:45.405Z,21.16
2022-08-26T21:44:52.719Z,21.32
2022-08-26T21:47:54.526Z,21.30
2022-08-26T21:50:57.080Z,21.36
2022-08-26T21:54:00.478Z,21.40
2022-08-26T21:57:02.005Z,21.42
2022-08-26T22:00:08.223Z,21.37
2022-08-26T22:03:09.676Z,21.33
2022-08-26T22:06:11.263Z,21.34
2022-08-26T22:09:15.205Z,21.33
2022-08-26T22:12:18.297Z,21.32
2022-08-26T22:15:22.908Z,21.38
2022-08-26T22:18:26.540Z,21.34
2022-08-26T22:21:28.412Z,21.52
2022-08-26T22:24:29.868Z,21.50
2022-08-26T22:27:31.328Z,21.31
2022-08-26T22:30:35.113Z,21.59
2022-08-26T22:33:37.919Z,21.26
2022-08-26T22:36:43.611Z,21.27
2022-08-26T22:39:46.131Z,21.20
2022-08-26T22:42:55.722Z,21.14
2022-08-26T22:46:00.309Z,21.18
2022-08-26T22:49:04.311Z,21.33
2022-08-26T22:52:05.787Z,21.44
2022-08-26T22:55:08.101Z,21.27
2022-08-26T22:58:11.576Z,21.45
2022-08-26T23:01:13.771Z,21.47
2022-08-26T23:04:15.467Z,21.54
2022-08-26T23:07:16.911Z,21.50
2022-08-26T23:10:18.376Z,21.47
2022-08-26T23:13:20.305Z,20.99
2022-08-26T23:16:21.819Z,20.96
2022-08-26T23:19:23.792Z,20.92
2022-08-26T23:22:25.330Z,20.80
2022-08-26T23:25:29.490Z,20.88
2022-08-26T23:28:31.989Z,21.11
2022-08-26T23:31:33.942Z,21.05
2022-08-26T23:34:53.812Z,21.02
2022-08-26T23:37:57.775Z,21.05
2022-08-26T23:41:00.427Z,21.12
2022-08-26T23:44:06.331Z,21.25
2022-08-26T23:47:08.365Z,21.07
2022-08-26T23:50:09.966Z,21.00
2022-08-26T23:53:19.229Z,21.01
2022-08-26T23:56:20.781Z,20.95
2022-08-26T23:59:22.232Z,20.98
